createdAt,value
2023-03-22T00:03:47.294Z,807.00
2023-03-22T00:07:47.116Z,805.00
2023-03-22T00:11:47.175Z,805.00
2023-03-22T00:15:47.293Z,802.00
2023-03-22T00:19:47.289Z,799.00
2023-03-22T00:23:47.305Z,800.00
2023-03-22T00:27:47.393Z,800.00
2023-03-22T00:31:47.431Z,796.00
2023-03-22T00:35:47.504Z,800.00
2023-03-22T00:39:47.473Z,800.00
2023-03-22T00:43:47.582Z,791.00
2023-03-22T00:47:47.626Z,790.00
2023-03-22T00:51:48.309Z,785.00
2023-03-22T00:55:47.663Z,781.00
2023-03-22T00:59:47.709Z,777.00
2023-03-22T01:03:47.871Z,773.00
2023-03-22T01:07:47.816Z,772.00
2023-03-22T01:11:47.889Z,774.00
2023-03-22T01:15:47.989Z,777.00
2023-03-22T01:19:47.946Z,773.00
2023-03-22T01:23:48.057Z,764.00
2023-03-22T01:27:48.290Z,763.00
2023-03-22T01:31:51.282Z,758.00
2023-03-22T01:35:48.116Z,760.00
2023-03-22T01:39:48.053Z,757.00
2023-03-22T01:43:48.025Z,751.00
2023-03-22T01:47:48.024Z,752.00
2023-03-22T01:51:47.970Z,751.00
2023-03-22T01:55:48.323Z,758.00
2023-03-22T01:59:47.880Z,754.00
2023-03-22T02:03:47.859Z,751.00
2023-03-22T02:07:47.910Z,754.00
2023-03-22T02:11:47.789Z,750.00
2023-03-22T02:15:48.345Z,745.00
2023-03-22T02:19:47.677Z,746.00
2023-03-22T02:23:47.672Z,742.00
2023-03-22T02:27:47.625Z,740.00
2023-03-22T02:31:47.592Z,737.00
2023-03-22T02:35:47.888Z,738.00
2023-03-22T02:39:48.319Z,736.00
2023-03-22T02:43:48.328Z,731.00
2023-03-22T02:47:47.431Z,730.00
2023-03-22T02:51:47.411Z,726.00
2023-03-22T02:55:47.386Z,727.00
2023-03-22T02:59:47.351Z,728.00
2023-03-22T03:03:47.269Z,724.00
2023-03-22T03:07:47.295Z,726.00
2023-03-22T03:11:47.310Z,719.00
2023-03-22T03:15:47.181Z,717.00
2023-03-22T03:19:47.260Z,712.00
2023-03-22T03:23:47.244Z,710.00
2023-03-22T03:27:47.299Z,710.00
2023-03-22T03:31:47.495Z,708.00
2023-03-22T03:35:47.436Z,706.00
2023-03-22T03:39:47.428Z,706.00
2023-03-22T03:43:47.460Z,707.00
2023-03-22T03:47:47.592Z,704.00
2023-03-22T03:51:47.595Z,704.00
2023-03-22T03:55:47.682Z,699.00
2023-03-22T03:59:47.766Z,697.00
2023-03-22T04:03:47.821Z,703.00
2023-03-22T04:07:47.907Z,701.00
2023-03-22T04:11:48.015Z,701.00
2023-03-22T04:15:48.054Z,702.00
2023-03-22T04:19:48.131Z,697.00
2023-03-22T04:23:48.271Z,698.00
2023-03-22T04:27:48.266Z,695.00
2023-03-22T04:31:48.299Z,691.00
2023-03-22T04:35:48.453Z,690.00
2023-03-22T04:39:50.408Z,690.00
2023-03-22T04:43:48.604Z,689.00
2023-03-22T04:47:48.736Z,683.00
2023-03-22T04:51:48.803Z,682.00
2023-03-22T04:55:48.844Z,680.00
2023-03-22T04:59:48.982Z,677.00
2023-03-22T05:03:49.113Z,674.00
2023-03-22T05:07:49.147Z,670.00
2023-03-22T05:11:49.248Z,672.00
2023-03-22T05:15:49.346Z,679.00
2023-03-22T05:19:49.490Z,676.00
2023-03-22T05:23:51.469Z,677.00
2023-03-22T05:27:49.721Z,677.00
2023-03-22T05:31:49.856Z,674.00
2023-03-22T05:35:49.908Z,672.00
2023-03-22T05:39:49.856Z,673.00
2023-03-22T05:43:49.909Z,678.00
2023-03-22T05:47:50.128Z,672.00
2023-03-22T05:51:49.870Z,662.00
2023-03-22T05:55:52.392Z,664.00
2023-03-22T05:59:49.783Z,663.00
2023-03-22T06:03:50.459Z,658.00
2023-03-22T06:07:49.955Z,659.00
2023-03-22T06:11:49.783Z,658.00
2023-03-22T06:15:51.438Z,657.00
2023-03-22T06:19:51.993Z,659.00
2023-03-22T06:23:49.898Z,659.00
2023-03-22T06:27:49.714Z,655.00
2023-03-22T06:31:50.382Z,657.00
2023-03-22T06:35:50.117Z,662.00
2023-03-22T06:39:50.075Z,881.00
2023-03-22T06:43:49.499Z,1108.00
2023-03-22T06:47:49.503Z,1143.00
2023-03-22T06:51:50.513Z,1676.00
2023-03-22T06:55:53.702Z,1290.00
2023-03-22T06:59:50.628Z,1285.00
2023-03-22T07:03:49.373Z,1255.00
2023-03-22T07:12:10.047Z,1245.00
2023-03-22T07:16:09.687Z,1190.00
2023-03-22T07:24:36.075Z,1143.00
2023-03-22T07:45:41.314Z,1177.00
2023-03-22T07:58:20.413Z,921.00
2023-03-22T08:06:37.431Z,938.00
2023-03-22T08:10:39.694Z,970.00
2023-03-22T08:19:06.897Z,950.00
2023-03-22T08:23:01.467Z,942.00
2023-03-22T08:26:56.022Z,988.00
2023-03-22T08:48:18.653Z,1166.00
2023-03-22T08:52:14.445Z,957.00
2023-03-22T09:00:42.260Z,826.00
2023-03-22T09:04:42.141Z,833.00
2023-03-22T09:12:49.787Z,794.00
2023-03-22T09:16:48.821Z,746.00
2023-03-22T09:25:14.504Z,748.00
2023-03-22T09:37:59.837Z,789.00
2023-03-22T09:59:17.869Z,1418.00
2023-03-22T10:03:18.107Z,1464.00
2023-03-22T10:07:25.659Z,1467.00
2023-03-22T10:11:22.765Z,1526.00
2023-03-22T10:15:18.354Z,1537.00
2023-03-22T10:19:18.342Z,1543.00
2023-03-22T10:27:38.172Z,1621.00
2023-03-22T10:31:37.155Z,1734.00
2023-03-22T10:39:56.179Z,1393.00
2023-03-22T10:52:34.288Z,1566.00
2023-03-22T11:01:27.320Z,1591.00
2023-03-22T11:05:39.531Z,1617.00
2023-03-22T11:14:02.499Z,1753.00
2023-03-22T11:18:07.341Z,1739.00
2023-03-22T11:22:12.133Z,1729.00
2023-03-22T11:26:02.209Z,1757.00
2023-03-22T11:30:01.959Z,1605.00
2023-03-22T11:34:02.336Z,1448.00
2023-03-22T11:38:01.237Z,1404.00
2023-03-22T11:42:01.279Z,1403.00
2023-03-22T11:46:01.208Z,1396.00
2023-03-22T11:50:01.700Z,1396.00
2023-03-22T11:54:01.158Z,1391.00
2023-03-22T11:58:01.030Z,1384.00
2023-03-22T12:02:00.985Z,1373.00
2023-03-22T12:06:01.175Z,1366.00
2023-03-22T12:10:01.425Z,1366.00
2023-03-22T12:14:01.523Z,1359.00
2023-03-22T12:18:01.876Z,1356.00
2023-03-22T12:22:01.989Z,1347.00
2023-03-22T12:26:02.087Z,1341.00
2023-03-22T12:30:02.259Z,1336.00
2023-03-22T12:34:02.674Z,1336.00
2023-03-22T12:38:02.399Z,1338.00
2023-03-22T12:42:02.574Z,1342.00
2023-03-22T12:46:02.700Z,1334.00
2023-03-22T12:50:03.191Z,1325.00
2023-03-22T12:54:02.898Z,1317.00
2023-03-22T12:58:03.032Z,1310.00
2023-03-22T13:02:03.196Z,1303.00
2023-03-22T13:06:03.176Z,1292.00
2023-03-22T13:10:03.496Z,1291.00
2023-03-22T13:14:03.355Z,1290.00
2023-03-22T13:18:03.615Z,1279.00
2023-03-22T13:22:03.547Z,1271.00
2023-03-22T13:26:03.661Z,1264.00
2023-03-22T13:30:03.711Z,1262.00
2023-03-22T13:34:03.908Z,1257.00
2023-03-22T13:38:03.920Z,1247.00
2023-03-22T13:42:04.063Z,1235.00
2023-03-22T13:46:04.219Z,1235.00
2023-03-22T13:50:06.849Z,1234.00
2023-03-22T13:54:04.267Z,1233.00
2023-03-22T13:58:05.199Z,1223.00
2023-03-22T14:02:04.236Z,1215.00
2023-03-22T14:06:04.131Z,1211.00
2023-03-22T14:10:04.130Z,1214.00
2023-03-22T14:14:04.106Z,1209.00
2023-03-22T14:18:07.374Z,1201.00
2023-03-22T14:47:05.889Z,1176.00
2023-03-22T14:51:05.858Z,1175.00
2023-03-22T14:55:05.825Z,1179.00
2023-03-22T14:59:05.774Z,1171.00
2023-03-22T15:03:07.536Z,1174.00
2023-03-22T15:07:05.691Z,1170.00
2023-03-22T15:11:05.759Z,1170.00
2023-03-22T15:15:05.832Z,1163.00
2023-03-22T15:19:06.022Z,1167.00
2023-03-22T15:23:06.102Z,1160.00
2023-03-22T15:27:06.200Z,1151.00
2023-03-22T15:31:06.205Z,1142.00
2023-03-22T15:35:06.220Z,1145.00
2023-03-22T15:39:06.189Z,1144.00
2023-03-22T15:43:06.251Z,1133.00
2023-03-22T15:47:06.266Z,1121.00
2023-03-22T15:51:06.393Z,1011.00
2023-03-22T15:55:11.175Z,981.00
2023-03-22T15:59:06.235Z,965.00
2023-03-22T16:03:06.179Z,954.00
2023-03-22T16:07:06.133Z,952.00
2023-03-22T16:11:06.096Z,948.00
2023-03-22T16:15:06.051Z,951.00
2023-03-22T16:19:06.008Z,945.00
2023-03-22T16:23:05.982Z,938.00
2023-03-22T16:27:06.120Z,926.00
2023-03-22T16:31:06.182Z,920.00
2023-03-22T16:35:06.108Z,910.00
2023-03-22T16:39:06.328Z,898.00
2023-03-22T16:43:06.646Z,887.00
2023-03-22T16:47:06.683Z,873.00
2023-03-22T16:51:06.604Z,861.00
2023-03-22T16:55:06.850Z,852.00
2023-03-22T16:59:06.942Z,834.00
2023-03-22T17:03:07.142Z,833.00
2023-03-22T17:07:07.174Z,817.00
2023-03-22T17:11:08.126Z,806.00
2023-03-22T17:15:07.029Z,792.00
2023-03-22T17:19:06.980Z,782.00
2023-03-22T17:23:06.949Z,775.00
2023-03-22T17:27:06.931Z,767.00
2023-03-22T17:31:07.804Z,763.00
2023-03-22T17:35:06.876Z,759.00
2023-03-22T17:39:20.961Z,762.00
2023-03-22T17:43:07.796Z,750.00
2023-03-22T17:47:33.056Z,742.00
2023-03-22T17:51:07.689Z,736.00
2023-03-22T17:55:16.729Z,720.00
2023-03-22T17:59:07.623Z,709.00
2023-03-22T18:03:06.609Z,703.00
2023-03-22T18:07:06.563Z,697.00
2023-03-22T18:11:06.518Z,685.00
2023-03-22T18:15:06.462Z,676.00
2023-03-22T18:19:06.661Z,676.00
2023-03-22T18:23:06.393Z,666.00
2023-03-22T18:27:11.257Z,666.00
2023-03-22T18:31:07.481Z,661.00
2023-03-22T18:35:06.286Z,655.00
2023-03-22T18:39:30.424Z,645.00
2023-03-22T18:43:07.208Z,639.00
2023-03-22T18:47:06.271Z,636.00
2023-03-22T18:51:11.623Z,624.00
2023-03-22T18:55:21.737Z,622.00
2023-03-22T18:59:07.091Z,606.00
2023-03-22T19:07:06.015Z,598.00
2023-03-22T19:11:06.704Z,594.00
2023-03-22T19:19:06.956Z,593.00
2023-03-22T19:23:05.847Z,590.00
2023-03-22T19:31:06.813Z,583.00
2023-03-22T19:35:05.764Z,576.00
2023-03-22T19:39:11.484Z,574.00
2023-03-22T19:43:08.673Z,567.00
2023-03-22T19:47:05.694Z,561.00
2023-03-22T19:51:05.611Z,558.00
2023-03-22T19:55:05.521Z,554.00
2023-03-22T19:59:11.525Z,554.00
2023-03-22T20:03:06.689Z,554.00
2023-03-22T20:07:05.448Z,552.00
2023-03-22T20:11:06.665Z,550.00
2023-03-22T20:15:05.536Z,546.00
2023-03-22T20:19:05.613Z,545.00
2023-03-22T20:23:05.743Z,534.00
2023-03-22T20:27:05.868Z,534.00
2023-03-22T20:31:06.051Z,533.00
2023-03-22T20:35:06.201Z,540.00
2023-03-22T20:39:06.288Z,539.00
2023-03-22T20:43:06.479Z,534.00
2023-03-22T20:47:06.545Z,530.00
2023-03-22T20:51:06.687Z,532.00
2023-03-22T20:55:06.795Z,534.00
2023-03-22T20:59:06.973Z,538.00
2023-03-22T21:03:07.084Z,541.00
2023-03-22T21:07:07.217Z,542.00
2023-03-22T21:11:07.335Z,549.00
2023-03-22T21:15:07.498Z,550.00
2023-03-22T21:19:07.655Z,547.00
2023-03-22T21:23:07.766Z,546.00
2023-03-22T21:27:07.975Z,546.00
2023-03-22T21:31:08.089Z,546.00
2023-03-22T21:35:08.192Z,547.00
2023-03-22T21:39:08.369Z,548.00
2023-03-22T21:43:08.514Z,550.00
2023-03-22T21:47:08.629Z,555.00
2023-03-22T21:51:08.804Z,553.00
2023-03-22T21:55:08.986Z,554.00
2023-03-22T21:59:09.133Z,557.00
2023-03-22T22:03:09.237Z,559.00
2023-03-22T22:07:09.406Z,564.00
2023-03-22T22:11:09.600Z,568.00
2023-03-22T22:15:09.728Z,570.00
2023-03-22T22:19:09.897Z,567.00
2023-03-22T22:23:10.104Z,569.00
2023-03-22T22:27:10.296Z,571.00
2023-03-22T22:31:10.469Z,567.00
2023-03-22T22:35:10.711Z,564.00
2023-03-22T22:39:10.891Z,571.00
2023-03-22T22:43:11.059Z,573.00
2023-03-22T22:47:11.239Z,575.00
2023-03-22T22:51:11.522Z,575.00
2023-03-22T22:55:11.563Z,577.00
2023-03-22T22:59:11.816Z,577.00
2023-03-22T23:03:12.044Z,580.00
2023-03-22T23:07:11.954Z,578.00
2023-03-22T23:11:11.921Z,578.00
2023-03-22T23:15:21.433Z,582.00
2023-03-22T23:19:15.745Z,578.00
2023-03-22T23:23:11.811Z,576.00
2023-03-22T23:27:11.776Z,574.00
2023-03-22T23:31:11.732Z,577.00
2023-03-22T23:35:11.825Z,578.00
2023-03-22T23:39:11.761Z,578.00
2023-03-22T23:43:11.702Z,578.00
2023-03-22T23:47:12.292Z,579.00
2023-03-22T23:51:12.150Z,582.00
2023-03-22T23:55:12.335Z,586.00
2023-03-22T23:59:12.645Z,591.00
